Time;durP1;ratioP1;P1;durP2;ratioP2;P2;SDS_P1;SDS_P2;PMS_P1;PMS_P2;Temp;Humidity;BMP_temperature;BMP_pressure;BME280_temperature;BME280_humidity;BME280_pressure;Samples;Min_cycle;Max_cycle;Signal;HPM_P1;HPM_P2
2023/08/14 00:01:18;;;;;;;4.10;2.50;;;;;;;;;;5032161;28;20465;-80
2023/08/14 00:03:46;;;;;;;4.80;2.37;;;;;;;;;;5029334;28;20447;-78
2023/08/14 00:06:14;;;;;;;4.73;2.20;;;;;;;;;;5031052;28;20945;-80
2023/08/14 00:08:43;;;;;;;6.90;2.40;;;;;;;;;;5025966;28;20447;-77
2023/08/14 00:11:10;;;;;;;4.87;2.40;;;;;;;;;;5026835;28;20451;-80
2023/08/14 00:13:49;;;;;;;3.83;2.07;;;;;;;;;;5023150;28;20466;-79
2023/08/14 00:16:18;;;;;;;3.90;2.57;;;;;;;;;;5024098;28;20544;-82
2023/08/14 00:18:45;;;;;;;8.40;2.63;;;;;;;;;;5023262;28;20448;-79
2023/08/14 00:21:14;;;;;;;6.67;2.90;;;;;;;;;;5025189;28;20927;-79
2023/08/14 00:23:43;;;;;;;5.90;2.70;;;;;;;;;;5029077;28;20443;-80
2023/08/14 00:26:11;;;;;;;3.10;2.33;;;;;;;;;;5024697;28;20462;-82
2023/08/14 00:28:39;;;;;;;8.00;2.73;;;;;;;;;;5026877;28;20471;-80
2023/08/14 00:31:06;;;;;;;6.20;2.50;;;;;;;;;;5022884;28;20546;-79
2023/08/14 00:33:34;;;;;;;4.07;2.40;;;;;;;;;;5026121;28;20455;-80
2023/08/14 00:36:02;;;;;;;6.83;2.37;;;;;;;;;;5021950;28;20537;-81
2023/08/14 00:38:29;;;;;;;9.63;2.47;;;;;;;;;;5023232;28;20471;-79
2023/08/14 00:40:58;;;;;;;5.90;1.97;;;;;;;;;;5021013;28;20455;-81
2023/08/14 00:43:25;;;;;;;8.13;2.47;;;;;;;;;;5022337;28;20518;-81
2023/08/14 00:45:55;;;;;;;4.53;2.70;;;;;;;;;;5023448;28;20478;-78
2023/08/14 00:48:23;;;;;;;11.30;3.20;;;;;;;;;;5030260;28;20447;-81
2023/08/14 00:50:51;;;;;;;14.67;4.50;;;;;;;;;;5028477;28;20467;-81
2023/08/14 00:53:26;;;;;;;6.37;2.70;;;;;;;;;;5023758;28;20463;-82
2023/08/14 00:55:53;;;;;;;5.93;2.50;;;;;;;;;;5023403;28;20537;-80
2023/08/14 00:58:23;;;;;;;4.87;1.90;;;;;;;;;;5031712;28;20483;-80
2023/08/14 01:00:54;;;;;;;4.17;2.40;;;;;;;;;;5028650;28;20443;-79
2023/08/14 01:03:26;;;;;;;15.00;2.97;;;;;;;;;;5024380;28;20463;-81
2023/08/14 01:05:53;;;;;;;4.07;2.70;;;;;;;;;;5021961;28;20463;-82
2023/08/14 01:08:21;;;;;;;3.97;2.20;;;;;;;;;;5022646;28;20751;-81
2023/08/14 01:10:54;;;;;;;4.47;2.10;;;;;;;;;;5025981;28;20471;-81
2023/08/14 01:13:27;;;;;;;3.90;2.73;;;;;;;;;;5029402;28;20451;-80
2023/08/14 01:15:56;;;;;;;3.33;2.30;;;;;;;;;;5027897;28;20529;-80
2023/08/14 01:18:29;;;;;;;3.67;2.60;;;;;;;;;;5025010;28;20495;-78
2023/08/14 01:21:05;;;;;;;5.47;2.70;;;;;;;;;;5026869;28;20466;-79
2023/08/14 01:23:34;;;;;;;6.73;2.70;;;;;;;;;;5028780;28;20527;-78
2023/08/14 01:26:04;;;;;;;6.30;2.00;;;;;;;;;;5029101;28;20450;-80
2023/08/14 01:28:31;;;;;;;3.40;2.10;;;;;;;;;;5027464;28;20448;-78
2023/08/14 01:30:59;;;;;;;10.93;2.60;;;;;;;;;;5026093;28;20461;-81
2023/08/14 01:33:26;;;;;;;5.23;2.30;;;;;;;;;;5023818;28;20455;-78
2023/08/14 01:35:55;;;;;;;2.80;2.10;;;;;;;;;;5022641;28;20459;-82
2023/08/14 01:38:28;;;;;;;3.77;1.80;;;;;;;;;;5020912;28;20922;-80
2023/08/14 01:40:58;;;;;;;4.47;2.60;;;;;;;;;;5024475;28;20910;-80
2023/08/14 01:43:28;;;;;;;6.90;2.87;;;;;;;;;;5024865;28;20832;-81
2023/08/14 01:45:57;;;;;;;5.30;2.13;;;;;;;;;;5024302;28;20931;-82
2023/08/14 01:48:26;;;;;;;5.23;1.97;;;;;;;;;;5023146;28;20444;-81
2023/08/14 01:50:54;;;;;;;5.93;2.40;;;;;;;;;;5024931;28;20555;-80
2023/08/14 01:53:22;;;;;;;4.23;2.57;;;;;;;;;;5022532;28;20491;-81
2023/08/14 01:55:49;;;;;;;5.83;3.67;;;;;;;;;;5023490;28;20463;-81
2023/08/14 01:58:17;;;;;;;3.50;2.10;;;;;;;;;;5024329;28;20487;-81
2023/08/14 02:00:47;;;;;;;7.27;2.50;;;;;;;;;;5024950;28;20455;-78
2023/08/14 02:03:14;;;;;;;3.70;1.90;;;;;;;;;;5027201;28;20459;-82
2023/08/14 02:05:42;;;;;;;5.23;2.43;;;;;;;;;;5020603;28;20462;-81
2023/08/14 02:08:09;;;;;;;4.33;2.70;;;;;;;;;;5025352;28;20462;-80
2023/08/14 02:10:37;;;;;;;3.53;2.20;;;;;;;;;;5021937;28;20439;-80
2023/08/14 02:13:05;;;;;;;5.73;2.50;;;;;;;;;;5027032;28;20462;-79
2023/08/14 02:15:33;;;;;;;5.13;2.10;;;;;;;;;;5024701;28;20459;-79
2023/08/14 02:18:02;;;;;;;5.13;2.03;;;;;;;;;;5031306;28;20542;-80
2023/08/14 02:20:30;;;;;;;4.50;2.90;;;;;;;;;;5027493;28;20460;-78
2023/08/14 02:23:03;;;;;;;4.10;2.97;;;;;;;;;;5029384;28;20469;-80
2023/08/14 02:25:31;;;;;;;8.13;2.27;;;;;;;;;;5025906;28;20737;-80
2023/08/14 02:27:59;;;;;;;4.90;2.50;;;;;;;;;;5031488;28;20435;-81
2023/08/14 02:30:27;;;;;;;4.93;2.73;;;;;;;;;;5025285;28;20466;-81
2023/08/14 02:32:56;;;;;;;5.80;2.50;;;;;;;;;;5030520;28;20516;-81
2023/08/14 02:35:25;;;;;;;5.30;2.77;;;;;;;;;;5027136;28;20464;-79
2023/08/14 02:37:53;;;;;;;7.10;2.77;;;;;;;;;;5029016;28;20521;-82
2023/08/14 02:40:20;;;;;;;8.50;2.67;;;;;;;;;;5029649;28;20455;-82
2023/08/14 02:42:48;;;;;;;5.00;3.00;;;;;;;;;;5021832;28;20871;-82
2023/08/14 02:45:19;;;;;;;5.67;2.93;;;;;;;;;;5026942;28;20512;-81
2023/08/14 02:47:46;;;;;;;7.77;3.17;;;;;;;;;;5033295;28;20736;-82
2023/08/14 02:50:17;;;;;;;4.10;2.60;;;;;;;;;;5032776;28;20546;-82
2023/08/14 02:52:46;;;;;;;5.63;3.30;;;;;;;;;;5024802;28;20454;-83
2023/08/14 02:55:13;;;;;;;4.37;2.73;;;;;;;;;;5023979;28;20455;-79
2023/08/14 02:57:41;;;;;;;5.40;3.03;;;;;;;;;;5027340;28;20565;-81
2023/08/14 03:00:09;;;;;;;6.03;3.20;;;;;;;;;;5032294;28;20435;-80
2023/08/14 03:02:37;;;;;;;4.97;2.50;;;;;;;;;;5025902;28;20898;-82
2023/08/14 03:05:04;;;;;;;7.17;2.80;;;;;;;;;;5022632;28;20913;-80
2023/08/14 03:07:32;;;;;;;7.53;2.70;;;;;;;;;;5025760;28;20468;-82
2023/08/14 03:10:01;;;;;;;5.37;2.80;;;;;;;;;;5020955;28;20455;-80
2023/08/14 03:12:28;;;;;;;12.73;3.60;;;;;;;;;;5024557;28;20444;-81
2023/08/14 03:14:56;;;;;;;10.27;3.40;;;;;;;;;;5023977;28;20509;-81
2023/08/14 03:17:23;;;;;;;3.50;2.37;;;;;;;;;;5023816;28;20560;-80
2023/08/14 03:19:51;;;;;;;5.53;2.60;;;;;;;;;;5023684;28;20802;-80
2023/08/14 03:22:19;;;;;;;6.93;3.37;;;;;;;;;;5023546;28;20526;-80
2023/08/14 03:24:50;;;;;;;5.93;3.10;;;;;;;;;;5025064;28;20447;-80
2023/08/14 03:27:19;;;;;;;5.03;3.03;;;;;;;;;;5021977;28;20589;-80
2023/08/14 03:29:47;;;;;;;10.57;3.20;;;;;;;;;;5024825;28;20467;-80
2023/08/14 03:32:15;;;;;;;12.70;4.43;;;;;;;;;;5023632;28;20483;-79
2023/08/14 03:34:46;;;;;;;3.70;3.10;;;;;;;;;;5023178;28;20848;-80
2023/08/14 03:37:16;;;;;;;7.57;3.53;;;;;;;;;;5020908;28;20499;-80
2023/08/14 03:39:44;;;;;;;5.27;2.80;;;;;;;;;;5020687;28;20470;-80
2023/08/14 03:42:12;;;;;;;8.70;3.53;;;;;;;;;;5018679;28;20451;-81
2023/08/14 03:44:41;;;;;;;13.80;3.10;;;;;;;;;;5017048;28;20533;-80
2023/08/14 03:47:08;;;;;;;6.70;2.77;;;;;;;;;;5026459;28;20452;-82
2023/08/14 03:49:37;;;;;;;8.87;3.40;;;;;;;;;;5028964;28;20447;-80
2023/08/14 03:52:04;;;;;;;4.60;3.53;;;;;;;;;;5030640;28;20451;-80
2023/08/14 03:54:32;;;;;;;7.37;3.10;;;;;;;;;;5027763;28;20490;-80
2023/08/14 03:57:00;;;;;;;6.43;2.70;;;;;;;;;;5026293;28;20469;-80
2023/08/14 03:59:28;;;;;;;5.63;3.33;;;;;;;;;;5029322;28;20805;-80
2023/08/14 04:01:57;;;;;;;8.80;3.60;;;;;;;;;;5028820;28;20454;-81
2023/08/14 04:04:24;;;;;;;9.63;3.37;;;;;;;;;;5027931;28;20444;-81
2023/08/14 04:06:52;;;;;;;6.73;3.00;;;;;;;;;;5030907;28;20459;-79
2023/08/14 04:09:22;;;;;;;7.60;3.07;;;;;;;;;;5027155;28;20875;-81
2023/08/14 04:11:50;;;;;;;6.00;3.20;;;;;;;;;;5030599;28;20466;-79
2023/08/14 04:14:17;;;;;;;6.60;3.27;;;;;;;;;;5027405;28;20545;-81
2023/08/14 04:16:45;;;;;;;7.03;3.07;;;;;;;;;;5030025;28;20456;-82
2023/08/14 04:19:17;;;;;;;7.17;4.70;;;;;;;;;;5027853;28;20510;-81
2023/08/14 04:21:45;;;;;;;5.40;3.33;;;;;;;;;;5030071;28;20469;-80
2023/08/14 04:24:12;;;;;;;7.80;3.10;;;;;;;;;;5027387;28;20472;-81
2023/08/14 04:26:40;;;;;;;7.50;3.17;;;;;;;;;;5024448;28;20455;-81
2023/08/14 04:29:08;;;;;;;11.17;3.20;;;;;;;;;;5027280;28;20547;-78
2023/08/14 04:31:36;;;;;;;10.10;2.90;;;;;;;;;;5025842;28;20452;-80
2023/08/14 04:34:03;;;;;;;6.43;3.20;;;;;;;;;;5027776;28;20443;-80
2023/08/14 04:36:33;;;;;;;7.73;3.40;;;;;;;;;;5026687;28;20446;-80
2023/08/14 04:39:01;;;;;;;5.63;2.90;;;;;;;;;;5026460;28;20614;-80
2023/08/14 04:41:28;;;;;;;6.07;3.27;;;;;;;;;;5028629;28;20545;-84
2023/08/14 04:43:56;;;;;;;5.57;3.57;;;;;;;;;;5024262;28;20482;-81
2023/08/14 04:46:30;;;;;;;4.53;3.80;;;;;;;;;;5027326;28;20502;-80
2023/08/14 04:48:58;;;;;;;7.20;3.83;;;;;;;;;;5029914;28;20914;-81
2023/08/14 04:51:25;;;;;;;5.80;3.37;;;;;;;;;;5026495;28;20570;-82
2023/08/14 04:53:55;;;;;;;7.50;4.60;;;;;;;;;;5026903;28;20458;-81
2023/08/14 04:56:22;;;;;;;5.50;3.40;;;;;;;;;;5026316;28;20466;-82
2023/08/14 04:58:52;;;;;;;6.93;3.70;;;;;;;;;;5028169;28;20491;-81
2023/08/14 05:01:22;;;;;;;4.50;3.17;;;;;;;;;;5023930;28;20447;-82
2023/08/14 05:03:50;;;;;;;9.27;3.50;;;;;;;;;;5026484;28;20482;-81
2023/08/14 05:06:18;;;;;;;5.00;2.63;;;;;;;;;;5022622;28;20463;-82
2023/08/14 05:08:46;;;;;;;4.57;3.60;;;;;;;;;;5027831;28;20451;-80
2023/08/14 05:11:15;;;;;;;5.97;4.03;;;;;;;;;;5021497;28;20471;-79
2023/08/14 05:13:44;;;;;;;10.23;4.13;;;;;;;;;;5023198;28;20447;-81
2023/08/14 05:16:12;;;;;;;6.40;3.80;;;;;;;;;;5019358;28;20519;-83
2023/08/14 05:18:39;;;;;;;8.27;3.10;;;;;;;;;;5021165;28;20514;-79
2023/08/14 05:21:07;;;;;;;7.90;4.03;;;;;;;;;;5018078;28;20495;-80
2023/08/14 05:23:35;;;;;;;9.00;4.00;;;;;;;;;;5018491;28;20451;-82
2023/08/14 05:26:03;;;;;;;5.07;3.33;;;;;;;;;;5016915;28;20467;-78
2023/08/14 05:28:32;;;;;;;5.90;2.80;;;;;;;;;;5019497;28;20578;-78
2023/08/14 05:31:00;;;;;;;4.90;2.97;;;;;;;;;;5016277;28;20952;-79
2023/08/14 05:33:28;;;;;;;7.80;2.57;;;;;;;;;;5012265;28;20499;-79
2023/08/14 05:35:56;;;;;;;3.73;2.70;;;;;;;;;;4996168;28;20495;-81
2023/08/14 05:38:24;;;;;;;3.40;2.43;;;;;;;;;;5003792;28;20500;-81
2023/08/14 05:40:52;;;;;;;8.73;2.83;;;;;;;;;;5005034;28;20467;-78
2023/08/14 05:43:20;;;;;;;3.30;2.43;;;;;;;;;;5002485;28;20506;-80
2023/08/14 05:45:50;;;;;;;6.23;2.57;;;;;;;;;;5002199;28;20543;-79
2023/08/14 05:48:21;;;;;;;8.03;3.40;;;;;;;;;;5003524;28;20543;-78
2023/08/14 05:50:54;;;;;;;6.70;3.33;;;;;;;;;;5005715;28;20547;-79
2023/08/14 05:53:22;;;;;;;3.80;2.73;;;;;;;;;;5000242;28;20507;-79
2023/08/14 05:55:50;;;;;;;5.20;3.30;;;;;;;;;;4998485;28;20452;-80
2023/08/14 05:58:17;;;;;;;5.80;3.00;;;;;;;;;;5002112;28;20512;-78
2023/08/14 06:00:45;;;;;;;7.73;3.03;;;;;;;;;;5003355;28;20821;-80
2023/08/14 06:03:14;;;;;;;9.63;3.47;;;;;;;;;;5005576;28;20455;-81
2023/08/14 06:05:41;;;;;;;6.20;3.40;;;;;;;;;;5005246;28;20440;-80
2023/08/14 06:08:09;;;;;;;5.60;3.40;;;;;;;;;;5006329;28;20480;-80
2023/08/14 06:10:38;;;;;;;15.97;3.30;;;;;;;;;;5004780;28;20452;-80
2023/08/14 06:13:11;;;;;;;5.00;2.90;;;;;;;;;;5007048;28;20538;-80
2023/08/14 06:15:38;;;;;;;4.20;3.03;;;;;;;;;;5006865;28;20535;-79
2023/08/14 06:18:07;;;;;;;6.47;3.27;;;;;;;;;;5005921;28;20459;-80
2023/08/14 06:20:36;;;;;;;7.30;3.30;;;;;;;;;;5007503;28;20460;-79
2023/08/14 06:23:04;;;;;;;5.90;3.00;;;;;;;;;;5002911;28;20506;-80
2023/08/14 06:25:33;;;;;;;7.20;4.60;;;;;;;;;;5002154;28;20456;-79
2023/08/14 06:28:01;;;;;;;5.43;3.57;;;;;;;;;;5001598;28;20448;-81
2023/08/14 06:30:29;;;;;;;5.83;2.83;;;;;;;;;;5002000;28;20490;-81
2023/08/14 06:32:57;;;;;;;4.70;3.40;;;;;;;;;;4999518;28;20460;-79
2023/08/14 06:35:25;;;;;;;8.40;4.27;;;;;;;;;;5000298;28;20898;-81
2023/08/14 06:37:54;;;;;;;8.57;5.30;;;;;;;;;;5000438;28;20536;-82
2023/08/14 06:40:21;;;;;;;8.40;3.80;;;;;;;;;;5003058;28;20543;-79
2023/08/14 06:42:49;;;;;;;5.57;2.80;;;;;;;;;;5006031;28;20957;-82
2023/08/14 06:45:17;;;;;;;6.30;3.60;;;;;;;;;;5005921;28;20474;-78
2023/08/14 06:47:45;;;;;;;7.80;2.80;;;;;;;;;;5005950;28;20456;-79
2023/08/14 06:50:16;;;;;;;6.00;4.10;;;;;;;;;;5024628;28;20456;-81
2023/08/14 06:52:44;;;;;;;5.50;3.13;;;;;;;;;;5024395;28;20463;-81
2023/08/14 06:55:13;;;;;;;6.60;2.73;;;;;;;;;;5026510;28;20497;-81
2023/08/14 06:57:41;;;;;;;6.03;3.80;;;;;;;;;;5022670;28;21080;-81
2023/08/14 07:00:12;;;;;;;7.70;3.93;;;;;;;;;;5022307;28;20538;-79
2023/08/14 07:02:40;;;;;;;5.17;2.60;;;;;;;;;;5026087;28;20467;-78
2023/08/14 07:05:10;;;;;;;5.90;3.47;;;;;;;;;;5026964;28;20460;-81
2023/08/14 07:07:38;;;;;;;8.17;3.60;;;;;;;;;;5028564;28;20444;-78
2023/08/14 07:10:09;;;;;;;8.17;3.87;;;;;;;;;;5028807;28;20769;-79
2023/08/14 07:12:39;;;;;;;6.77;3.33;;;;;;;;;;5028705;28;20467;-80
2023/08/14 07:15:08;;;;;;;10.00;3.30;;;;;;;;;;5018114;28;20514;-79
2023/08/14 07:17:36;;;;;;;3.47;2.70;;;;;;;;;;5028813;28;20447;-80
2023/08/14 07:20:09;;;;;;;7.50;3.37;;;;;;;;;;5018602;28;20489;-78
2023/08/14 07:22:37;;;;;;;4.40;2.93;;;;;;;;;;5027437;28;20478;-79
2023/08/14 07:25:09;;;;;;;15.60;4.70;;;;;;;;;;5023474;28;20486;-80
2023/08/14 07:27:37;;;;;;;8.67;6.83;;;;;;;;;;5026097;28;20521;-80
2023/08/14 07:30:11;;;;;;;4.80;3.33;;;;;;;;;;5025758;28;20451;-81
2023/08/14 07:32:38;;;;;;;5.73;2.67;;;;;;;;;;5021262;28;20577;-80
2023/08/14 07:35:08;;;;;;;5.73;3.03;;;;;;;;;;5019247;28;20633;-80
2023/08/14 07:37:36;;;;;;;9.07;4.00;;;;;;;;;;5017870;28;20487;-79
2023/08/14 07:40:09;;;;;;;6.93;3.30;;;;;;;;;;5021213;28;20728;-81
2023/08/14 07:42:36;;;;;;;5.70;3.70;;;;;;;;;;5011319;28;20468;-79
2023/08/14 07:45:14;;;;;;;7.23;3.33;;;;;;;;;;5024879;28;20463;-82
2023/08/14 07:47:43;;;;;;;7.70;3.53;;;;;;;;;;5029838;28;20554;-78
2023/08/14 07:50:11;;;;;;;5.97;3.30;;;;;;;;;;5029362;28;20451;-83
2023/08/14 07:52:39;;;;;;;7.07;3.00;;;;;;;;;;5009482;28;20456;-81
2023/08/14 07:55:07;;;;;;;5.33;3.03;;;;;;;;;;5018517;28;20554;-82
2023/08/14 07:57:35;;;;;;;8.87;3.53;;;;;;;;;;5020867;28;20447;-81
2023/08/14 08:00:08;;;;;;;7.90;3.80;;;;;;;;;;5019669;28;20489;-81
2023/08/14 08:02:38;;;;;;;3.80;2.40;;;;;;;;;;5022479;28;20757;-81
2023/08/14 08:05:08;;;;;;;8.17;3.23;;;;;;;;;;5020559;28;20510;-82
2023/08/14 08:07:42;;;;;;;6.20;3.13;;;;;;;;;;5021770;28;20466;-82
2023/08/14 08:10:11;;;;;;;8.93;5.10;;;;;;;;;;5022701;28;20689;-82
2023/08/14 08:12:41;;;;;;;8.40;3.70;;;;;;;;;;5019207;28;20478;-80
2023/08/14 08:15:12;;;;;;;4.47;3.00;;;;;;;;;;5017902;28;20451;-85
2023/08/14 08:17:39;;;;;;;5.77;3.13;;;;;;;;;;5023071;28;20447;-79
2023/08/14 08:20:15;;;;;;;8.07;2.53;;;;;;;;;;5024133;28;20485;-80
2023/08/14 08:22:43;;;;;;;3.73;2.83;;;;;;;;;;5025645;28;20467;-82
2023/08/14 08:25:17;;;;;;;7.57;3.20;;;;;;;;;;5019480;28;20475;-81
2023/08/14 08:27:55;;;;;;;4.10;2.80;;;;;;;;;;5022891;28;20530;-81
2023/08/14 08:30:24;;;;;;;11.30;3.63;;;;;;;;;;5021509;28;20490;-79
2023/08/14 08:32:51;;;;;;;8.53;3.20;;;;;;;;;;5019956;28;20459;-79
2023/08/14 08:35:21;;;;;;;5.60;3.53;;;;;;;;;;5026816;28;20447;-80
2023/08/14 08:37:49;;;;;;;4.20;2.43;;;;;;;;;;5026410;28;20479;-80
2023/08/14 08:40:16;;;;;;;6.43;2.40;;;;;;;;;;5030318;28;20580;-80
2023/08/14 08:42:44;;;;;;;10.33;2.50;;;;;;;;;;5024124;28;20459;-79
2023/08/14 08:45:16;;;;;;;5.30;2.73;;;;;;;;;;5027875;28;20509;-80
2023/08/14 08:47:46;;;;;;;4.87;2.87;;;;;;;;;;5019838;28;20528;-82
2023/08/14 08:50:16;;;;;;;6.60;2.67;;;;;;;;;;5023624;28;20465;-81
2023/08/14 08:52:50;;;;;;;6.60;2.90;;;;;;;;;;5019935;28;20455;-80
2023/08/14 08:55:18;;;;;;;6.13;2.17;;;;;;;;;;5020339;28;20603;-82
2023/08/14 08:57:46;;;;;;;6.20;2.53;;;;;;;;;;5018887;28;20468;-82
2023/08/14 09:00:20;;;;;;;8.37;5.67;;;;;;;;;;5022958;28;20560;-79
2023/08/14 09:02:48;;;;;;;7.83;3.90;;;;;;;;;;5005514;28;20829;-79
2023/08/14 09:05:15;;;;;;;5.70;2.87;;;;;;;;;;5005141;28;21174;-81
2023/08/14 09:07:43;;;;;;;4.73;2.27;;;;;;;;;;5025718;28;20486;-80
2023/08/14 09:10:15;;;;;;;4.83;3.10;;;;;;;;;;5022937;28;20466;-80
2023/08/14 09:12:43;;;;;;;6.03;3.07;;;;;;;;;;5019229;28;20442;-80
2023/08/14 09:15:14;;;;;;;4.80;2.90;;;;;;;;;;5012244;28;20463;-81
2023/08/14 09:17:46;;;;;;;5.53;2.63;;;;;;;;;;5016118;28;20473;-78
2023/08/14 09:20:17;;;;;;;4.70;2.40;;;;;;;;;;5025587;28;20502;-81
2023/08/14 09:22:48;;;;;;;4.43;2.83;;;;;;;;;;5022264;28;20514;-79
2023/08/14 09:25:19;;;;;;;4.93;2.77;;;;;;;;;;5025555;28;20490;-80
2023/08/14 09:27:49;;;;;;;3.47;1.93;;;;;;;;;;5034926;28;20459;-80
2023/08/14 09:30:20;;;;;;;6.30;3.10;;;;;;;;;;5046521;28;20442;-80
2023/08/14 09:32:49;;;;;;;10.83;3.50;;;;;;;;;;5022489;28;20463;-81
2023/08/14 09:35:17;;;;;;;5.60;3.27;;;;;;;;;;5023101;28;20533;-78
2023/08/14 09:37:48;;;;;;;6.93;2.40;;;;;;;;;;5022445;28;20938;-79
2023/08/14 09:40:21;;;;;;;5.53;2.30;;;;;;;;;;5030206;28;20471;-80
2023/08/14 09:42:50;;;;;;;8.93;3.33;;;;;;;;;;5019140;28;20455;-81
2023/08/14 09:45:23;;;;;;;7.20;3.67;;;;;;;;;;5011272;28;20887;-78
2023/08/14 09:48:03;;;;;;;5.80;2.53;;;;;;;;;;5025239;28;20463;-81
2023/08/14 09:50:36;;;;;;;5.57;1.93;;;;;;;;;;5026667;28;20431;-81
2023/08/14 09:53:04;;;;;;;3.77;2.00;;;;;;;;;;5023783;28;20658;-79
2023/08/14 09:55:35;;;;;;;4.13;2.40;;;;;;;;;;5022924;28;20459;-81
2023/08/14 09:58:03;;;;;;;7.30;2.47;;;;;;;;;;5025437;28;20471;-80
2023/08/14 10:00:32;;;;;;;7.90;2.27;;;;;;;;;;5023347;28;20547;-80
2023/08/14 10:03:01;;;;;;;7.80;3.27;;;;;;;;;;5024838;28;20455;-80
2023/08/14 10:05:29;;;;;;;6.93;4.03;;;;;;;;;;5025653;28;20471;-79
2023/08/14 10:07:56;;;;;;;5.20;2.60;;;;;;;;;;5019692;28;20949;-79
2023/08/14 10:10:25;;;;;;;7.50;2.27;;;;;;;;;;5017077;28;20550;-80
2023/08/14 10:12:58;;;;;;;4.53;2.47;;;;;;;;;;5018067;28;20451;-80
2023/08/14 10:15:27;;;;;;;7.77;3.70;;;;;;;;;;5020963;28;20459;-79
2023/08/14 10:17:59;;;;;;;8.60;4.87;;;;;;;;;;5022607;28;20868;-79
2023/08/14 10:20:28;;;;;;;4.37;2.50;;;;;;;;;;5022060;28;20459;-80
2023/08/14 10:22:59;;;;;;;3.60;2.13;;;;;;;;;;5022821;28;20757;-80
2023/08/14 10:25:30;;;;;;;7.20;3.10;;;;;;;;;;5014861;28;20466;-81
2023/08/14 10:27:59;;;;;;;10.20;4.40;;;;;;;;;;5016353;28;20474;-82
2023/08/14 10:30:27;;;;;;;8.70;3.90;;;;;;;;;;5019470;28;20474;-81
2023/08/14 10:33:01;;;;;;;7.67;5.30;;;;;;;;;;5016999;28;21209;-77
2023/08/14 10:35:29;;;;;;;6.03;3.00;;;;;;;;;;5016503;28;20451;-79
2023/08/14 10:37:57;;;;;;;7.70;3.50;;;;;;;;;;5016068;28;20507;-79
2023/08/14 10:40:28;;;;;;;10.23;5.67;;;;;;;;;;5016520;28;20534;-80
2023/08/14 10:42:58;;;;;;;7.90;3.13;;;;;;;;;;5016397;28;20464;-80
2023/08/14 10:45:29;;;;;;;7.53;2.63;;;;;;;;;;5016978;28;20471;-79
2023/08/14 10:48:02;;;;;;;6.93;2.43;;;;;;;;;;5021862;28;20837;-80
2023/08/14 10:50:32;;;;;;;6.80;2.90;;;;;;;;;;5015945;28;20455;-79
2023/08/14 10:53:03;;;;;;;5.33;2.83;;;;;;;;;;5023222;28;20538;-81
2023/08/14 10:55:41;;;;;;;24.17;10.17;;;;;;;;;;5015783;28;20482;-80
2023/08/14 10:58:28;;;;;;;7.80;3.50;;;;;;;;;;5019699;28;21094;-81
2023/08/14 11:01:09;;;;;;;7.27;2.70;;;;;;;;;;5026893;28;20490;-82
2023/08/14 11:04:01;;;;;;;14.20;4.90;;;;;;;;;;5026375;28;20501;-80
2023/08/14 11:06:47;;;;;;;5.70;2.70;;;;;;;;;;5022472;28;20474;-80
2023/08/14 11:09:16;;;;;;;3.63;2.30;;;;;;;;;;5026838;28;20447;-79
2023/08/14 11:11:45;;;;;;;5.20;3.33;;;;;;;;;;5022261;28;20447;-80
2023/08/14 11:14:13;;;;;;;12.80;5.33;;;;;;;;;;5021298;28;20454;-80
2023/08/14 11:16:47;;;;;;;6.10;4.00;;;;;;;;;;5022288;28;20855;-78
2023/08/14 11:19:14;;;;;;;5.90;3.03;;;;;;;;;;5020440;28;21023;-81
2023/08/14 11:21:42;;;;;;;8.63;3.10;;;;;;;;;;5021508;28;20478;-79
2023/08/14 11:24:11;;;;;;;13.47;5.87;;;;;;;;;;5021517;28;20870;-81
2023/08/14 11:26:39;;;;;;;11.23;4.30;;;;;;;;;;5022759;28;20455;-81
2023/08/14 11:29:06;;;;;;;17.73;7.50;;;;;;;;;;5024649;28;20447;-79
2023/08/14 11:31:34;;;;;;;5.83;3.07;;;;;;;;;;5024813;28;20463;-80
2023/08/14 11:34:03;;;;;;;5.03;2.33;;;;;;;;;;5029009;28;20502;-79
2023/08/14 11:36:31;;;;;;;5.20;2.63;;;;;;;;;;5027014;28;20454;-81
2023/08/14 11:38:59;;;;;;;4.30;2.60;;;;;;;;;;5028041;28;20473;-80
2023/08/14 11:41:27;;;;;;;10.00;3.00;;;;;;;;;;5027911;28;20471;-81
2023/08/14 11:43:54;;;;;;;5.70;3.30;;;;;;;;;;5027320;28;20480;-82
2023/08/14 11:46:23;;;;;;;4.20;2.47;;;;;;;;;;5023340;28;20526;-80
2023/08/14 11:48:51;;;;;;;6.90;3.47;;;;;;;;;;5021479;28;20461;-79
2023/08/14 11:51:20;;;;;;;5.13;2.27;;;;;;;;;;5028425;28;20533;-77
2023/08/14 11:53:48;;;;;;;6.07;2.97;;;;;;;;;;5021801;28;20467;-83
2023/08/14 11:56:16;;;;;;;4.30;2.37;;;;;;;;;;5020827;28;20961;-82
2023/08/14 11:58:44;;;;;;;7.07;3.17;;;;;;;;;;5020825;28;20455;-80
2023/08/14 12:01:11;;;;;;;10.07;6.77;;;;;;;;;;5020975;28;20487;-78
2023/08/14 12:03:39;;;;;;;9.40;4.93;;;;;;;;;;5020639;28;20458;-80
2023/08/14 12:06:09;;;;;;;4.40;2.60;;;;;;;;;;5021160;28;20533;-82
2023/08/14 12:08:39;;;;;;;5.67;2.27;;;;;;;;;;5023622;28;20482;-80
2023/08/14 12:11:07;;;;;;;10.10;5.67;;;;;;;;;;5025258;28;20456;-81
2023/08/14 12:13:35;;;;;;;5.63;3.13;;;;;;;;;;5025504;28;20451;-80
2023/08/14 12:16:12;;;;;;;3.67;2.20;;;;;;;;;;5023020;28;20517;-83
2023/08/14 12:18:45;;;;;;;5.73;2.53;;;;;;;;;;5024483;28;20462;-80
2023/08/14 12:21:15;;;;;;;5.70;3.53;;;;;;;;;;5025045;28;20489;-80
2023/08/14 12:23:49;;;;;;;6.33;3.77;;;;;;;;;;5021016;28;20452;-82
2023/08/14 12:26:17;;;;;;;4.67;2.73;;;;;;;;;;5025891;28;20462;-78
2023/08/14 12:28:44;;;;;;;8.93;3.97;;;;;;;;;;5024210;28;20525;-79
2023/08/14 12:31:13;;;;;;;7.33;2.87;;;;;;;;;;5026513;28;20463;-81
2023/08/14 12:33:44;;;;;;;4.73;2.30;;;;;;;;;;5021585;28;20529;-81
2023/08/14 12:36:12;;;;;;;5.00;2.63;;;;;;;;;;5021925;28;20456;-80
2023/08/14 12:38:40;;;;;;;7.30;3.67;;;;;;;;;;5021255;28;20860;-78
2023/08/14 12:41:10;;;;;;;6.80;2.90;;;;;;;;;;5022947;28;20574;-79
2023/08/14 12:43:41;;;;;;;7.33;3.77;;;;;;;;;;5021189;28;20462;-79
2023/08/14 12:46:09;;;;;;;9.73;6.40;;;;;;;;;;5018878;28;20474;-80
2023/08/14 12:48:37;;;;;;;9.40;3.30;;;;;;;;;;5021377;28;20572;-80
2023/08/14 12:51:05;;;;;;;5.70;3.13;;;;;;;;;;5024265;28;20523;-78
2023/08/14 12:53:33;;;;;;;5.67;3.03;;;;;;;;;;5020412;28;20448;-78
2023/08/14 12:56:01;;;;;;;5.70;2.20;;;;;;;;;;5019555;28;20481;-80
2023/08/14 12:58:30;;;;;;;3.23;2.37;;;;;;;;;;5021366;28;20478;-79
2023/08/14 13:00:58;;;;;;;5.33;2.63;;;;;;;;;;5020796;28;20559;-83
2023/08/14 13:03:26;;;;;;;10.03;5.23;;;;;;;;;;5018519;28;20558;-81
2023/08/14 13:05:55;;;;;;;6.27;3.23;;;;;;;;;;5011809;28;20549;-82
2023/08/14 13:08:23;;;;;;;4.50;2.60;;;;;;;;;;5021396;28;20754;-79
2023/08/14 13:10:51;;;;;;;4.50;2.63;;;;;;;;;;5020148;28;20455;-79
2023/08/14 13:13:23;;;;;;;3.63;2.33;;;;;;;;;;5022372;28;20528;-83
2023/08/14 13:15:52;;;;;;;6.43;2.80;;;;;;;;;;5020011;28;20487;-80
2023/08/14 13:18:21;;;;;;;21.53;11.63;;;;;;;;;;5021814;28;20550;-81
2023/08/14 13:20:49;;;;;;;4.20;2.60;;;;;;;;;;5019278;28;20530;-81
2023/08/14 13:23:18;;;;;;;6.80;3.00;;;;;;;;;;5015993;28;20546;-82
2023/08/14 13:25:47;;;;;;;4.00;2.80;;;;;;;;;;5020928;28;20454;-80
2023/08/14 13:28:15;;;;;;;7.70;4.80;;;;;;;;;;5016489;28;20459;-80
2023/08/14 13:30:49;;;;;;;6.10;2.63;;;;;;;;;;5023143;28;20443;-81
2023/08/14 13:33:23;;;;;;;5.57;2.23;;;;;;;;;;5017422;28;20516;-82
2023/08/14 13:35:51;;;;;;;6.90;3.70;;;;;;;;;;5016077;28;20482;-79
2023/08/14 13:38:22;;;;;;;8.73;3.87;;;;;;;;;;5013468;28;20549;-80
2023/08/14 13:40:54;;;;;;;5.87;3.10;;;;;;;;;;5019439;28;20573;-81
2023/08/14 13:43:21;;;;;;;5.73;3.10;;;;;;;;;;5007386;28;20460;-79
2023/08/14 13:45:53;;;;;;;5.20;3.07;;;;;;;;;;5006185;28;20525;-78
2023/08/14 13:48:33;;;;;;;3.80;2.30;;;;;;;;;;5015943;28;20490;-78
2023/08/14 13:51:01;;;;;;;8.13;3.73;;;;;;;;;;5020440;28;20479;-80
2023/08/14 13:53:29;;;;;;;9.87;5.03;;;;;;;;;;5016647;28;20456;-80
2023/08/14 13:55:56;;;;;;;5.00;3.07;;;;;;;;;;5015817;28;20458;-78
2023/08/14 13:58:25;;;;;;;7.90;3.37;;;;;;;;;;5018738;28;20567;-80
2023/08/14 14:00:53;;;;;;;7.47;3.90;;;;;;;;;;5024126;28;20490;-82
2023/08/14 14:03:21;;;;;;;6.13;3.00;;;;;;;;;;5023218;28;20463;-80
2023/08/14 14:05:50;;;;;;;7.00;3.10;;;;;;;;;;5021226;28;20513;-82
2023/08/14 14:08:17;;;;;;;7.33;2.73;;;;;;;;;;5021813;28;20444;-80
2023/08/14 14:10:45;;;;;;;4.63;3.13;;;;;;;;;;5022344;28;20550;-79
2023/08/14 14:13:13;;;;;;;8.80;4.87;;;;;;;;;;5018469;28;20533;-79
2023/08/14 14:15:40;;;;;;;7.17;3.00;;;;;;;;;;5023973;28;20466;-80
2023/08/14 14:18:08;;;;;;;5.13;3.03;;;;;;;;;;5023953;28;20470;-78
2023/08/14 14:20:36;;;;;;;3.50;2.70;;;;;;;;;;5024354;28;20459;-79
2023/08/14 14:23:05;;;;;;;4.93;2.60;;;;;;;;;;5023367;28;20494;-82
2023/08/14 14:25:33;;;;;;;5.30;2.90;;;;;;;;;;5022626;28;20483;-79
2023/08/14 14:28:01;;;;;;;4.20;2.10;;;;;;;;;;5024121;28;20462;-79
2023/08/14 14:30:28;;;;;;;4.87;2.77;;;;;;;;;;5023948;28;20525;-79
2023/08/14 14:32:56;;;;;;;4.43;2.73;;;;;;;;;;5023935;28;20446;-80
2023/08/14 14:35:27;;;;;;;4.30;2.60;;;;;;;;;;5024850;28;20493;-80
2023/08/14 14:37:59;;;;;;;7.10;4.20;;;;;;;;;;5026927;28;20487;-81
2023/08/14 14:40:29;;;;;;;4.60;3.13;;;;;;;;;;5020643;28;20463;-80
2023/08/14 14:43:05;;;;;;;7.13;3.53;;;;;;;;;;5019669;28;20467;-80
2023/08/14 14:45:40;;;;;;;6.13;4.10;;;;;;;;;;5025504;28;20483;-81
2023/08/14 14:48:28;;;;;;;10.10;2.37;;;;;;;;;;5023983;28;20471;-81
2023/08/14 14:51:05;;;;;;;5.70;2.60;;;;;;;;;;5020926;28;20467;-78
2023/08/14 14:53:40;;;;;;;6.73;3.27;;;;;;;;;;5023800;28;20451;-82